Time;durP1;ratioP1;P1;durP2;ratioP2;P2;SDS_P1;SDS_P2;PMS_P1;PMS_P2;Temp;Humidity;BMP_temperature;BMP_pressure;BME280_temperature;BME280_humidity;BME280_pressure;Samples;Min_cycle;Max_cycle;Signal;HPM_P1;HPM_P2
2023/10/07 00:01:02;;;;;;;;;;;20.50;1.00;;;;;;5283251;23;19925;31
2023/10/07 00:03:31;;;;;;;;;;;20.60;1.00;;;;;;4884624;29;19934;-54
2023/10/07 00:06:01;;;;;;;;;;;20.60;1.00;;;;;;4878867;29;20419;-55
2023/10/07 00:08:28;;;;;;;;;;;20.60;1.00;;;;;;4878624;29;19927;-56
2023/10/07 00:10:59;;;;;;;;;;;20.60;1.00;;;;;;4878261;29;20022;-57
2023/10/07 00:13:30;;;;;;;;;;;20.60;1.00;;;;;;4878647;29;19928;-58
2023/10/07 00:15:59;;;;;;;;;;;20.50;1.00;;;;;;4878864;29;20054;-58
2023/10/07 00:18:26;;;;;;;;;;;20.60;1.00;;;;;;4879618;29;19938;-57
2023/10/07 00:20:56;;;;;;;;;;;20.50;1.00;;;;;;4884884;29;19935;-58
2023/10/07 00:23:26;;;;;;;;;;;20.60;1.00;;;;;;4878400;29;20390;-58
2023/10/07 00:25:54;;;;;;;;;;;20.50;1.00;;;;;;4878744;29;19928;-58
2023/10/07 00:30:55;;;;;;;;;;;20.50;1.00;;;;;;4861454;29;19928;-56
2023/10/07 00:33:22;;;;;;;;;;;20.50;1.00;;;;;;4910774;23;19925;-56
2023/10/07 00:35:53;;;;;;;;;;;20.60;1.00;;;;;;4910125;29;19959;-58
2023/10/07 00:38:24;;;;;;;;;;;20.60;1.00;;;;;;4909933;29;19934;-58
2023/10/07 00:40:56;;;;;;;;;;;20.60;1.00;;;;;;4917831;29;19926;-58
2023/10/07 00:43:27;;;;;;;;;;;20.60;1.00;;;;;;4927004;29;19969;-57
2023/10/07 00:46:06;;;;;;;;;;;20.60;1.00;;;;;;4934956;29;19986;-55
2023/10/07 00:48:52;;;;;;;;;;;20.60;1.00;;;;;;4911882;29;19927;-56
2023/10/07 00:51:42;;;;;;;;;;;20.60;1.00;;;;;;4913901;29;19927;-57
2023/10/07 00:54:30;;;;;;;;;;;20.50;1.00;;;;;;4909203;29;19978;-58
2023/10/07 00:57:08;;;;;;;;;;;20.50;1.00;;;;;;4913930;29;19927;-54
2023/10/07 00:59:36;;;;;;;;;;;20.50;1.00;;;;;;4913759;29;19927;-58
2023/10/07 01:02:06;;;;;;;;;;;20.50;1.00;;;;;;4938564;29;20523;-58
2023/10/07 01:04:40;;;;;;;;;;;20.50;1.00;;;;;;4931148;29;19931;-55
2023/10/07 01:07:09;;;;;;;;;;;20.50;1.00;;;;;;4921540;29;20013;-57
2023/10/07 01:09:36;;;;;;;;;;;20.50;1.00;;;;;;4930239;29;19950;-58
2023/10/07 01:12:03;;;;;;;;;;;20.60;1.00;;;;;;4921188;29;20367;-58
2023/10/07 01:14:34;;;;;;;;;;;20.50;1.00;;;;;;4921057;29;20377;-56
2023/10/07 01:17:03;;;;;;;;;;;20.50;1.00;;;;;;4938451;29;19982;-57
2023/10/07 01:19:35;;;;;;;;;;;20.50;1.00;;;;;;4921040;29;19931;-56
2023/10/07 01:22:09;;;;;;;;;;;20.50;1.00;;;;;;4921131;29;19973;-58
2023/10/07 01:27:16;;;;;;;;;;;20.50;1.00;;;;;;4930651;29;20270;-57
2023/10/07 01:29:43;;;;;;;;;;;20.50;1.00;;;;;;4920848;29;19933;-58
2023/10/07 01:32:15;;;;;;;;;;;20.60;1.00;;;;;;4952673;29;19926;-58
2023/10/07 01:34:52;;;;;;;;;;;20.50;1.00;;;;;;4930477;29;20388;-58
2023/10/07 01:37:21;;;;;;;;;;;20.50;1.00;;;;;;4913941;29;20021;-55
2023/10/07 01:39:49;;;;;;;;;;;20.50;1.00;;;;;;4909641;29;19933;-57
2023/10/07 01:42:49;;;;;;;;;;;20.50;1.00;;;;;;4916425;29;20308;-57
2023/10/07 01:45:22;;;;;;;;;;;20.50;1.00;;;;;;4921439;29;20342;-57
2023/10/07 01:47:52;;;;;;;;;;;20.50;1.00;;;;;;4937668;29;20354;-58
2023/10/07 01:50:19;;;;;;;;;;;20.50;1.00;;;;;;4920524;29;19934;-58
2023/10/07 01:52:49;;;;;;;;;;;20.50;1.00;;;;;;4929649;29;20034;-56
2023/10/07 01:55:16;;;;;;;;;;;20.50;1.00;;;;;;4901658;29;19928;-56
2023/10/07 01:57:45;;;;;;;;;;;20.50;1.00;;;;;;4912753;29;20281;-56
2023/10/07 02:00:12;;;;;;;;;;;20.50;1.00;;;;;;4911963;29;20393;-57
2023/10/07 02:02:48;;;;;;;;;;;20.50;1.00;;;;;;4920301;29;19927;-57
2023/10/07 02:05:16;;;;;;;;;;;20.50;1.00;;;;;;5037684;23;21130;-57
2023/10/07 02:07:43;;;;;;;;;;;20.50;1.00;;;;;;4919620;29;19927;-58
2023/10/07 02:10:19;;;;;;;;;;;20.50;1.00;;;;;;4931574;29;19934;-57
2023/10/07 02:12:46;;;;;;;;;;;20.50;1.00;;;;;;4920235;29;20017;-56
2023/10/07 02:15:19;;;;;;;;;;;20.50;1.00;;;;;;4923617;29;19929;-56
2023/10/07 02:17:47;;;;;;;;;;;20.50;1.00;;;;;;4918328;29;19950;-58
2023/10/07 02:20:24;;;;;;;;;;;20.50;1.00;;;;;;4900931;29;19931;-58
2023/10/07 02:22:52;;;;;;;;;;;20.50;1.00;;;;;;4918211;29;19931;-58
2023/10/07 02:25:26;;;;;;;;;;;20.50;1.00;;;;;;4932853;29;19994;-58
2023/10/07 02:27:54;;;;;;;;;;;20.50;1.00;;;;;;4917342;29;19958;-58
2023/10/07 02:30:21;;;;;;;;;;;20.50;1.00;;;;;;4900810;29;19927;-58
2023/10/07 02:32:48;;;;;;;;;;;20.50;1.00;;;;;;4900933;29;20473;-57
2023/10/07 02:38:10;;;;;;;;;;;20.50;1.00;;;;;;5042690;23;20002;-57
2023/10/07 02:40:48;;;;;;;;;;;20.50;1.00;;;;;;4936536;29;20019;-57
2023/10/07 02:43:16;;;;;;;;;;;20.50;1.00;;;;;;4936931;29;19930;-57
2023/10/07 02:45:43;;;;;;;;;;;20.50;1.00;;;;;;4919611;29;19978;-57
2023/10/07 02:48:12;;;;;;;;;;;20.50;1.00;;;;;;4919827;29;19990;-55
2023/10/07 02:50:41;;;;;;;;;;;20.50;1.00;;;;;;4936331;29;19926;-57
2023/10/07 02:53:15;;;;;;;;;;;20.50;1.00;;;;;;4919566;29;19953;-57
2023/10/07 02:55:54;;;;;;;;;;;20.50;1.00;;;;;;4919594;29;20264;-58
2023/10/07 02:58:32;;;;;;;;;;;20.50;1.00;;;;;;4919525;29;19966;-56
2023/10/07 03:01:11;;;;;;;;;;;20.50;1.00;;;;;;4910012;29;20022;-58
2023/10/07 03:03:38;;;;;;;;;;;20.50;1.00;;;;;;4917645;29;19979;-58
2023/10/07 03:06:08;;;;;;;;;;;20.50;1.00;;;;;;4900719;29;19933;-58
2023/10/07 03:08:59;;;;;;;;;;;20.50;1.00;;;;;;5095609;23;21128;-57
2023/10/07 03:11:39;;;;;;;;;;;20.50;1.00;;;;;;4897368;29;20318;-57
2023/10/07 03:14:12;;;;;;;;;;;20.50;1.00;;;;;;4917137;29;20389;-58
2023/10/07 03:16:45;;;;;;;;;;;20.50;1.00;;;;;;4917135;29;19931;-58
2023/10/07 03:19:22;;;;;;;;;;;20.50;1.00;;;;;;4900226;29;19927;-58
2023/10/07 03:24:28;;;;;;;;;;;20.50;1.00;;;;;;4889404;29;19934;-56
2023/10/07 03:27:05;;;;;;;;;;;20.50;1.00;;;;;;4897616;29;20007;-58
2023/10/07 03:29:36;;;;;;;;;;;20.50;1.00;;;;;;4898166;29;19963;-55
2023/10/07 03:32:12;;;;;;;;;;;20.50;1.00;;;;;;4916019;29;20002;-56
2023/10/07 03:34:42;;;;;;;;;;;20.50;1.00;;;;;;4916856;29;20313;-56
2023/10/07 03:39:56;;;;;;;;;;;20.50;1.00;;;;;;4915416;29;19938;-57
2023/10/07 03:42:23;;;;;;;;;;;20.50;1.00;;;;;;4916674;29;20014;-58
2023/10/07 03:44:50;;;;;;;;;;;20.50;1.00;;;;;;4916431;29;20308;-54
2023/10/07 03:47:17;;;;;;;;;;;20.50;1.00;;;;;;4916897;29;19982;-55
2023/10/07 03:49:52;;;;;;;;;;;20.50;1.00;;;;;;4916392;29;19934;-58
2023/10/07 03:52:20;;;;;;;;;;;20.50;1.00;;;;;;4916539;29;19937;-55
2023/10/07 03:54:48;;;;;;;;;;;20.50;1.00;;;;;;4916528;29;20441;-54
2023/10/07 03:57:18;;;;;;;;;;;20.50;1.00;;;;;;4916543;29;19943;-58
2023/10/07 03:59:45;;;;;;;;;;;20.50;1.00;;;;;;4916309;29;20030;-56
2023/10/07 04:02:31;;;;;;;;;;;20.50;1.00;;;;;;4916378;29;20420;-57
2023/10/07 04:05:09;;;;;;;;;;;20.50;1.00;;;;;;4916438;29;19935;-58
2023/10/07 04:07:37;;;;;;;;;;;20.50;1.00;;;;;;4916449;29;20461;-57
2023/10/07 04:10:13;;;;;;;;;;;20.50;1.00;;;;;;4914863;23;20277;-57
2023/10/07 04:12:40;;;;;;;;;;;20.50;1.00;;;;;;4935322;29;19927;-56
2023/10/07 04:15:12;;;;;;;;;;;20.40;1.00;;;;;;4935488;29;19927;-55
2023/10/07 04:17:39;;;;;;;;;;;20.50;1.00;;;;;;4935222;29;20401;-57
2023/10/07 04:20:18;;;;;;;;;;;20.50;1.00;;;;;;4935000;29;20378;-55
2023/10/07 04:22:45;;;;;;;;;;;20.40;1.00;;;;;;4934961;29;19927;-56
2023/10/07 04:25:17;;;;;;;;;;;20.50;1.00;;;;;;4935333;29;19949;-58
2023/10/07 04:27:44;;;;;;;;;;;20.40;1.00;;;;;;4935075;29;20025;-58
2023/10/07 04:30:13;;;;;;;;;;;20.50;1.00;;;;;;4935042;29;19933;-56
2023/10/07 04:32:52;;;;;;;;;;;20.50;1.00;;;;;;4935077;29;19927;-58
2023/10/07 04:35:26;;;;;;;;;;;20.40;1.00;;;;;;4935209;29;20026;-57
2023/10/07 04:38:08;;;;;;;;;;;20.40;1.00;;;;;;4934841;29;19927;-57
2023/10/07 04:43:47;;;;;;;;;;;20.40;1.00;;;;;;5082650;23;19934;-58
2023/10/07 04:46:29;;;;;;;;;;;20.50;1.00;;;;;;4941565;29;19927;-58
2023/10/07 04:48:57;;;;;;;;;;;20.50;1.00;;;;;;4934698;29;20385;-56
2023/10/07 04:51:46;;;;;;;;;;;20.40;1.00;;;;;;4948393;29;19970;-58
2023/10/07 04:54:20;;;;;;;;;;;20.50;1.00;;;;;;4954208;29;19954;-58
2023/10/07 04:56:53;;;;;;;;;;;20.50;1.00;;;;;;4953865;29;19938;-57
2023/10/07 04:59:21;;;;;;;;;;;20.50;1.00;;;;;;4953882;29;19926;-58
2023/10/07 05:01:56;;;;;;;;;;;20.50;1.00;;;;;;4953654;29;20401;-57
2023/10/07 05:04:24;;;;;;;;;;;20.50;1.00;;;;;;4954083;29;20396;-58
2023/10/07 05:06:53;;;;;;;;;;;20.50;1.00;;;;;;4952711;29;19926;-58
2023/10/07 05:09:21;;;;;;;;;;;20.50;1.00;;;;;;4947309;29;19930;-57
2023/10/07 05:11:48;;;;;;;;;;;20.50;1.00;;;;;;4953541;29;19934;-57
2023/10/07 05:14:17;;;;;;;;;;;20.40;1.00;;;;;;5425479;23;19934;-59
2023/10/07 05:16:47;;;;;;;;;;;20.50;1.00;;;;;;4934198;29;19931;-58
2023/10/07 05:19:22;;;;;;;;;;;20.40;1.00;;;;;;4938212;29;20292;-57
2023/10/07 05:22:00;;;;;;;;;;;20.40;1.00;;;;;;4945654;29;19927;-59
2023/10/07 05:24:30;;;;;;;;;;;20.40;1.00;;;;;;4945972;29;20006;-59
2023/10/07 05:26:59;;;;;;;;;;;20.50;1.00;;;;;;4944080;29;20299;-57
2023/10/07 05:29:27;;;;;;;;;;;20.40;1.00;;;;;;4942632;29;20386;-57
2023/10/07 05:31:56;;;;;;;;;;;20.40;1.00;;;;;;4943329;29;19926;-59
2023/10/07 05:34:28;;;;;;;;;;;20.50;1.00;;;;;;4947492;28;19930;-58
2023/10/07 05:36:58;;;;;;;;;;;20.40;1.00;;;;;;4948042;29;19947;-58
2023/10/07 05:39:25;;;;;;;;;;;20.40;1.00;;;;;;4945925;29;19927;-59
2023/10/07 05:41:53;;;;;;;;;;;20.40;1.00;;;;;;4946463;29;19927;-55
2023/10/07 05:44:20;;;;;;;;;;;20.50;1.00;;;;;;4949307;29;19926;-58
2023/10/07 05:46:47;;;;;;;;;;;20.40;1.00;;;;;;5317861;23;19927;-57
2023/10/07 05:49:14;;;;;;;;;;;20.40;1.00;;;;;;4926776;29;19938;-58
2023/10/07 05:51:42;;;;;;;;;;;20.40;1.00;;;;;;4926072;29;19928;-57
2023/10/07 05:54:09;;;;;;;;;;;20.40;1.00;;;;;;4929599;29;20013;-57
2023/10/07 05:56:36;;;;;;;;;;;20.50;1.00;;;;;;4929879;29;19931;-57
2023/10/07 05:59:03;;;;;;;;;;;20.50;1.00;;;;;;4927587;29;19933;-57
2023/10/07 06:01:33;;;;;;;;;;;20.50;1.00;;;;;;4925895;29;19934;-58
2023/10/07 06:04:00;;;;;;;;;;;20.50;1.00;;;;;;4927542;29;19927;-56
2023/10/07 06:06:30;;;;;;;;;;;20.40;1.00;;;;;;4928074;29;19930;-56
2023/10/07 06:09:00;;;;;;;;;;;20.50;1.00;;;;;;4927468;29;20408;-58
2023/10/07 06:11:32;;;;;;;;;;;20.40;1.00;;;;;;4925517;29;19949;-57
2023/10/07 06:13:59;;;;;;;;;;;20.40;1.00;;;;;;4927226;29;20029;-58
2023/10/07 06:16:26;;;;;;;;;;;20.40;1.00;;;;;;4929665;29;19927;-58
2023/10/07 06:18:54;;;;;;;;;;;20.50;1.00;;;;;;5056503;23;19926;-56
2023/10/07 06:21:27;;;;;;;;;;;20.40;1.00;;;;;;4917654;29;19936;-57
2023/10/07 06:23:58;;;;;;;;;;;20.40;1.00;;;;;;4917875;29;19960;-57
2023/10/07 06:26:26;;;;;;;;;;;20.40;1.00;;;;;;4918264;29;20361;-57
2023/10/07 06:28:56;;;;;;;;;;;20.40;1.00;;;;;;4917820;29;19931;-58
2023/10/07 06:31:31;;;;;;;;;;;20.40;1.00;;;;;;4918348;29;19934;-56
2023/10/07 06:34:12;;;;;;;;;;;20.40;1.00;;;;;;4918154;29;19927;-57
2023/10/07 06:36:40;;;;;;;;;;;20.40;1.00;;;;;;4918775;29;20546;-57
2023/10/07 06:39:10;;;;;;;;;;;20.40;1.00;;;;;;4917665;29;19931;-57
2023/10/07 06:41:38;;;;;;;;;;;20.40;1.00;;;;;;4917802;29;19938;-56
2023/10/07 06:44:15;;;;;;;;;;;20.40;1.00;;;;;;4917935;29;19935;-58
2023/10/07 06:46:44;;;;;;;;;;;20.40;1.00;;;;;;4918017;29;19928;-57
2023/10/07 06:49:16;;;;;;;;;;;20.40;1.00;;;;;;5025711;23;20990;-57
2023/10/07 06:51:44;;;;;;;;;;;20.40;1.00;;;;;;4917214;29;19934;-57
2023/10/07 06:54:13;;;;;;;;;;;20.40;1.00;;;;;;4917709;29;20411;-56
2023/10/07 06:56:40;;;;;;;;;;;20.50;1.00;;;;;;4917764;29;19928;-55
2023/10/07 06:59:07;;;;;;;;;;;20.40;1.00;;;;;;4917279;29;19934;-56
2023/10/07 07:04:10;;;;;;;;;;;20.40;1.00;;;;;;4917522;29;19927;-57
2023/10/07 07:06:42;;;;;;;;;;;20.40;1.00;;;;;;4917635;29;19927;-58
2023/10/07 07:09:58;;;;;;;;;;;20.40;1.00;;;;;;4917886;29;19931;-56
2023/10/07 07:11:58;;;;;;;;;;;20.40;1.00;;;;;;4904202;29;19931;-57
2023/10/07 07:14:28;;;;;;;;;;;20.40;1.00;;;;;;4917560;29;19965;-55
2023/10/07 07:16:56;;;;;;;;;;;20.50;1.00;;;;;;4917489;29;19927;-57
2023/10/07 07:19:23;;;;;;;;;;;20.40;1.00;;;;;;4918246;29;19927;-56
2023/10/07 07:21:50;;;;;;;;;;;20.40;1.00;;;;;;4915977;29;20415;-56
2023/10/07 07:24:25;;;;;;;;;;;20.40;1.00;;;;;;4916943;29;19927;-56
2023/10/07 07:26:52;;;;;;;;;;;20.40;1.00;;;;;;4917239;29;19966;-57
2023/10/07 07:29:23;;;;;;;;;;;20.40;1.00;;;;;;4916765;29;19938;-56
2023/10/07 07:31:50;;;;;;;;;;;20.40;1.00;;;;;;4916799;29;19927;-56
2023/10/07 07:34:26;;;;;;;;;;;20.40;1.00;;;;;;4916979;29;19938;-57
2023/10/07 07:37:02;;;;;;;;;;;20.40;1.00;;;;;;4917098;29;19927;-57
2023/10/07 07:39:32;;;;;;;;;;;20.40;1.00;;;;;;4916725;29;20477;-58
2023/10/07 07:42:15;;;;;;;;;;;20.40;1.00;;;;;;4916802;29;19931;-57
2023/10/07 07:44:55;;;;;;;;;;;20.50;1.00;;;;;;4917190;29;20294;-57
2023/10/07 07:47:23;;;;;;;;;;;20.40;1.00;;;;;;4935820;29;19955;-58
2023/10/07 07:52:49;;;;;;;;;;;20.50;1.00;;;;;;5218920;23;19933;-57
2023/10/07 07:55:16;;;;;;;;;;;20.50;1.00;;;;;;4954560;29;20385;-57
2023/10/07 07:57:44;;;;;;;;;;;20.40;1.00;;;;;;4954418;28;20016;-58
2023/10/07 08:00:20;;;;;;;;;;;20.40;1.00;;;;;;4954214;29;19926;-56
2023/10/07 08:02:48;;;;;;;;;;;20.50;1.00;;;;;;4954561;29;20419;-56
2023/10/07 08:05:16;;;;;;;;;;;20.40;1.00;;;;;;4954552;29;20005;-58
2023/10/07 08:07:43;;;;;;;;;;;20.50;1.00;;;;;;4954634;29;19962;-58
2023/10/07 08:10:10;;;;;;;;;;;20.50;1.00;;;;;;4953886;29;20029;-58
2023/10/07 08:12:37;;;;;;;;;;;20.40;1.00;;;;;;4954570;29;19961;-58
2023/10/07 08:17:37;;;;;;;;;;;20.50;1.00;;;;;;4954602;29;19926;-58
2023/10/07 08:20:10;;;;;;;;;;;20.50;1.00;;;;;;4954038;29;19926;-57
2023/10/07 08:25:38;;;;;;;;;;;20.50;1.00;;;;;;5124283;23;19934;-59
2023/10/07 08:28:23;;;;;;;;;;;20.50;1.00;;;;;;4954278;29;19933;-57
2023/10/07 08:30:50;;;;;;;;;;;20.50;1.00;;;;;;4953960;29;19933;-59
2023/10/07 08:33:23;;;;;;;;;;;20.50;1.00;;;;;;4954000;29;19978;-59
2023/10/07 08:35:51;;;;;;;;;;;20.50;1.00;;;;;;4954231;29;19931;-59
2023/10/07 08:39:05;;;;;;;;;;;20.60;1.00;;;;;;4953967;29;19965;-57
2023/10/07 08:41:09;;;;;;;;;;;20.50;1.00;;;;;;4941237;29;19937;-59
2023/10/07 08:43:46;;;;;;;;;;;20.60;1.00;;;;;;4954043;29;20017;-57
2023/10/07 08:46:16;;;;;;;;;;;20.60;1.00;;;;;;4954172;29;20323;-59
2023/10/07 08:49:04;;;;;;;;;;;20.60;1.00;;;;;;4936904;29;20418;-59
2023/10/07 08:51:39;;;;;;;;;;;20.60;1.00;;;;;;4953593;29;19927;-56
2023/10/07 08:54:10;;;;;;;;;;;20.60;1.00;;;;;;4953724;29;20038;-59
2023/10/07 08:56:38;;;;;;;;;;;20.60;1.00;;;;;;5253964;23;21062;-59
2023/10/07 08:59:12;;;;;;;;;;;20.60;1.00;;;;;;4937939;29;20013;-59
2023/10/07 09:01:42;;;;;;;;;;;20.60;1.00;;;;;;4934511;29;19982;-58
2023/10/07 09:04:10;;;;;;;;;;;20.60;1.00;;;;;;4934794;29;19934;-59
2023/10/07 09:06:45;;;;;;;;;;;20.60;1.00;;;;;;4934814;29;19939;-59
2023/10/07 09:09:12;;;;;;;;;;;20.60;1.00;;;;;;4936096;29;20456;-59
2023/10/07 09:11:40;;;;;;;;;;;20.60;1.00;;;;;;4938289;29;19927;-59
2023/10/07 09:14:07;;;;;;;;;;;20.60;1.00;;;;;;4938319;29;20029;-59
2023/10/07 09:16:34;;;;;;;;;;;20.70;1.00;;;;;;4938557;29;20334;-59
2023/10/07 09:19:10;;;;;;;;;;;20.70;1.00;;;;;;4938505;29;20297;-59
2023/10/07 09:21:38;;;;;;;;;;;20.60;1.00;;;;;;4938112;29;19931;-59
2023/10/07 09:24:13;;;;;;;;;;;20.70;1.00;;;;;;4938414;29;19926;-59
2023/10/07 09:26:56;;;;;;;;;;;20.70;1.00;;;;;;4938302;29;19933;-59
2023/10/07 09:29:24;;;;;;;;;;;20.70;1.00;;;;;;5118663;23;19963;-57
2023/10/07 09:31:58;;;;;;;;;;;20.70;1.00;;;;;;4918639;29;20317;-57
2023/10/07 09:37:13;;;;;;;;;;;20.70;1.00;;;;;;4918954;29;19934;-57
2023/10/07 09:39:54;;;;;;;;;;;20.70;1.00;;;;;;4919077;29;20026;-57
2023/10/07 09:42:26;;;;;;;;;;;20.70;1.00;;;;;;4918800;29;19953;-57
2023/10/07 09:47:38;;;;;;;;;;;20.70;1.00;;;;;;4920106;29;20401;-57
2023/10/07 09:50:19;;;;;;;;;;;20.70;1.00;;;;;;4920469;29;19927;-57
2023/10/07 09:52:51;;;;;;;;;;;20.70;1.00;;;;;;4919805;29;19928;-57
2023/10/07 09:55:28;;;;;;;;;;;20.70;1.00;;;;;;4918577;29;20174;-55
2023/10/07 09:58:17;;;;;;;;;;;20.70;1.00;;;;;;4918922;29;19973;-57
2023/10/07 10:01:04;;;;;;;;;;;20.70;1.00;;;;;;4979677;23;19926;-56
2023/10/07 10:03:33;;;;;;;;;;;20.70;1.00;;;;;;4956365;29;19934;-54
2023/10/07 10:06:03;;;;;;;;;;;20.70;1.00;;;;;;4956762;29;20468;-56
2023/10/07 10:08:36;;;;;;;;;;;20.70;1.00;;;;;;4956702;29;19934;-53
2023/10/07 10:11:19;;;;;;;;;;;20.70;1.00;;;;;;4956412;29;19934;-55
2023/10/07 10:16:28;;;;;;;;;;;20.70;1.00;;;;;;4956413;29;19934;-57
2023/10/07 10:21:44;;;;;;;;;;;20.70;1.00;;;;;;4949376;29;19933;-55
2023/10/07 10:24:15;;;;;;;;;;;20.80;1.00;;;;;;4956567;29;19970;-56
2023/10/07 10:26:44;;;;;;;;;;;20.80;1.00;;;;;;4956428;29;20338;-58
2023/10/07 10:32:12;;;;;;;;;;;20.80;1.00;;;;;;4964934;23;19933;-57
2023/10/07 10:34:39;;;;;;;;;;;20.80;1.00;;;;;;4956461;29;20008;-57
2023/10/07 10:37:07;;;;;;;;;;;20.80;1.00;;;;;;4938855;29;19980;-57
2023/10/07 10:39:34;;;;;;;;;;;20.80;1.00;;;;;;4955852;28;20056;-57
2023/10/07 10:42:13;;;;;;;;;;;20.80;1.00;;;;;;4956022;29;19926;-57
2023/10/07 10:44:46;;;;;;;;;;;20.90;1.00;;;;;;4956147;29;20392;-54
2023/10/07 10:47:17;;;;;;;;;;;20.90;1.00;;;;;;4956130;29;19966;-57
2023/10/07 10:49:44;;;;;;;;;;;20.90;1.00;;;;;;4929630;29;20313;-57
2023/10/07 10:52:12;;;;;;;;;;;20.90;1.00;;;;;;4936474;29;19927;-57
2023/10/07 10:54:39;;;;;;;;;;;20.90;1.00;;;;;;4936554;29;19931;-57
2023/10/07 10:57:07;;;;;;;;;;;20.90;1.00;;;;;;4937005;29;20337;-57
2023/10/07 10:59:47;;;;;;;;;;;20.90;1.00;;;;;;4936384;29;19934;-56
2023/10/07 11:02:17;;;;;;;;;;;21.00;1.00;;;;;;5443255;23;19977;-57
2023/10/07 11:04:45;;;;;;;;;;;20.90;1.00;;;;;;4910299;29;19927;-57
2023/10/07 11:07:14;;;;;;;;;;;20.90;1.00;;;;;;4917520;29;19927;-57
2023/10/07 11:09:41;;;;;;;;;;;20.90;1.00;;;;;;4917468;29;19978;-56
2023/10/07 11:12:16;;;;;;;;;;;21.00;1.00;;;;;;4917132;29;19966;-56
2023/10/07 11:14:44;;;;;;;;;;;21.00;1.00;;;;;;4910145;29;20010;-58
2023/10/07 11:17:12;;;;;;;;;;;21.00;1.00;;;;;;4917630;29;19927;-58
2023/10/07 11:19:40;;;;;;;;;;;21.00;1.00;;;;;;4917290;29;20278;-56
2023/10/07 11:22:07;;;;;;;;;;;21.00;1.00;;;;;;4917342;29;19938;-56
2023/10/07 11:24:35;;;;;;;;;;;21.00;1.00;;;;;;4917407;29;20267;-56
2023/10/07 11:27:02;;;;;;;;;;;21.00;1.00;;;;;;4917518;29;20469;-55
2023/10/07 11:29:32;;;;;;;;;;;21.00;1.00;;;;;;4917199;29;20021;-57
2023/10/07 11:31:59;;;;;;;;;;;21.00;1.00;;;;;;4916258;29;19927;-56
2023/10/07 11:34:31;;;;;;;;;;;21.00;1.00;;;;;;5323945;23;19990;-56
2023/10/07 11:37:04;;;;;;;;;;;21.00;1.00;;;;;;4955216;29;19986;-57
2023/10/07 11:39:35;;;;;;;;;;;21.00;1.00;;;;;;4937477;29;20025;-57
2023/10/07 11:42:02;;;;;;;;;;;21.00;1.00;;;;;;4954872;29;20017;-57
2023/10/07 11:44:28;;;;;;;;;;;21.00;1.00;;;;;;4954835;29;20024;-57
2023/10/07 11:46:56;;;;;;;;;;;21.00;1.00;;;;;;4954974;29;19930;-57
2023/10/07 11:49:23;;;;;;;;;;;21.00;1.00;;;;;;4954803;29;20406;-57
2023/10/07 11:51:52;;;;;;;;;;;21.00;1.00;;;;;;4954621;29;19933;-57
2023/10/07 11:54:24;;;;;;;;;;;21.00;1.00;;;;;;4954982;29;20035;-57
2023/10/07 11:56:50;;;;;;;;;;;21.00;1.00;;;;;;4947658;29;19926;-57
2023/10/07 11:59:19;;;;;;;;;;;21.00;1.00;;;;;;4954578;29;19930;-55
2023/10/07 12:01:47;;;;;;;;;;;21.00;1.00;;;;;;4946800;29;19934;-57
2023/10/07 12:04:14;;;;;;;;;;;21.00;1.00;;;;;;4954609;29;19930;-58
2023/10/07 12:06:47;;;;;;;;;;;21.00;1.00;;;;;;5349682;23;20234;-58
2023/10/07 12:09:18;;;;;;;;;;;21.10;1.00;;;;;;4935375;29;19927;-58
2023/10/07 12:11:45;;;;;;;;;;;21.00;1.00;;;;;;4934885;29;19973;-58
2023/10/07 12:14:13;;;;;;;;;;;21.10;1.00;;;;;;4935365;29;20030;-58
2023/10/07 12:16:43;;;;;;;;;;;21.10;1.00;;;;;;4935120;29;19934;-58
2023/10/07 12:19:17;;;;;;;;;;;21.10;1.00;;;;;;4935332;29;20457;-58
2023/10/07 12:21:47;;;;;;;;;;;21.10;1.00;;;;;;4934301;29;20327;-57
2023/10/07 12:24:16;;;;;;;;;;;21.10;1.00;;;;;;4935313;29;20304;-58
2023/10/07 12:26:46;;;;;;;;;;;21.10;1.00;;;;;;4935030;29;19964;-58
2023/10/07 12:29:13;;;;;;;;;;;21.10;1.00;;;;;;4935188;29;20151;-58
2023/10/07 12:31:40;;;;;;;;;;;21.10;1.00;;;;;;4935069;29;20290;-58
2023/10/07 12:34:09;;;;;;;;;;;21.10;1.00;;;;;;4934977;29;19990;-57
2023/10/07 12:36:38;;;;;;;;;;;21.10;1.00;;;;;;4934937;29;20001;-58
2023/10/07 12:39:10;;;;;;;;;;;21.10;1.00;;;;;;5007813;23;20470;-58
2023/10/07 12:41:38;;;;;;;;;;;21.10;1.00;;;;;;4915753;29;20332;-58
2023/10/07 12:44:08;;;;;;;;;;;21.10;1.00;;;;;;4916042;29;20309;-57
2023/10/07 12:46:40;;;;;;;;;;;21.10;1.00;;;;;;4916113;29;19981;-57
2023/10/07 12:49:10;;;;;;;;;;;21.10;1.00;;;;;;4916074;29;19927;-57
2023/10/07 12:51:38;;;;;;;;;;;21.10;1.00;;;;;;4915528;29;19938;-57
2023/10/07 12:54:08;;;;;;;;;;;21.10;1.00;;;;;;4915903;29;19934;-57
2023/10/07 12:56:36;;;;;;;;;;;21.10;1.00;;;;;;4915853;29;20282;-57
2023/10/07 12:59:07;;;;;;;;;;;21.10;1.00;;;;;;4915859;29;19933;-58
2023/10/07 13:01:34;;;;;;;;;;;21.10;1.00;;;;;;4915642;29;19993;-57
2023/10/07 13:04:01;;;;;;;;;;;21.10;1.00;;;;;;4915990;29;20305;-58
2023/10/07 13:06:29;;;;;;;;;;;21.10;1.00;;;;;;4915854;29;20006;-58
2023/10/07 13:09:03;;;;;;;;;;;21.10;1.00;;;;;;4958718;23;19943;31
2023/10/07 13:11:30;;;;;;;;;;;21.10;1.00;;;;;;4891530;29;19934;-58
2023/10/07 13:13:57;;;;;;;;;;;21.10;1.00;;;;;;4896912;29;19935;-58
2023/10/07 13:16:24;;;;;;;;;;;21.10;1.00;;;;;;4897027;29;19927;-58
2023/10/07 13:18:51;;;;;;;;;;;21.10;1.00;;;;;;4896566;29;19935;-57
2023/10/07 13:21:19;;;;;;;;;;;21.10;1.00;;;;;;4896692;29;19928;-57
2023/10/07 13:23:46;;;;;;;;;;;21.20;1.00;;;;;;4896627;29;19935;-56
2023/10/07 13:26:14;;;;;;;;;;;21.20;1.00;;;;;;4896896;29;19934;-58
2023/10/07 13:28:41;;;;;;;;;;;21.20;1.00;;;;;;4896504;29;20378;-58
2023/10/07 13:31:09;;;;;;;;;;;21.20;1.00;;;;;;4896946;29;20401;-58
2023/10/07 13:33:36;;;;;;;;;;;21.20;1.00;;;;;;4896658;29;19939;-58
2023/10/07 13:36:03;;;;;;;;;;;21.20;1.00;;;;;;4896681;29;20394;-58
2023/10/07 13:38:31;;;;;;;;;;;21.20;1.00;;;;;;4896466;29;19927;-58
2023/10/07 13:41:00;;;;;;;;;;;21.20;1.00;;;;;;4888708;29;19927;-58
2023/10/07 13:43:29;;;;;;;;;;;21.20;1.00;;;;;;4896555;29;19979;-55
2023/10/07 13:45:56;;;;;;;;;;;21.20;1.00;;;;;;4881691;29;19937;-58
2023/10/07 13:48:23;;;;;;;;;;;21.20;1.00;;;;;;4896561;29;19975;-58
2023/10/07 13:50:51;;;;;;;;;;;21.20;1.00;;;;;;4896234;29;19975;-56
2023/10/07 13:53:28;;;;;;;;;;;21.20;1.00;;;;;;4896343;29;20321;-57
2023/10/07 13:55:55;;;;;;;;;;;21.20;1.00;;;;;;4891249;29;19935;-57
2023/10/07 13:58:22;;;;;;;;;;;21.20;1.00;;;;;;4899690;29;19928;-58
2023/10/07 14:00:52;;;;;;;;;;;21.20;1.00;;;;;;4899391;29;19962;-58
2023/10/07 14:03:19;;;;;;;;;;;21.20;1.00;;;;;;4899597;29;19931;-56
2023/10/07 14:05:51;;;;;;;;;;;21.20;1.00;;;;;;4900083;29;19927;-56
2023/10/07 14:08:19;;;;;;;;;;;21.20;1.00;;;;;;4899862;29;19927;-58
2023/10/07 14:13:46;;;;;;;;;;;21.20;1.00;;;;;;5004587;23;19934;-58
2023/10/07 14:16:17;;;;;;;;;;;21.20;1.00;;;;;;4956791;29;19931;-57
2023/10/07 14:18:46;;;;;;;;;;;21.20;1.00;;;;;;4956955;29;19926;-57
2023/10/07 14:21:13;;;;;;;;;;;21.20;1.00;;;;;;4937195;29;20009;-55
2023/10/07 14:23:40;;;;;;;;;;;21.30;1.00;;;;;;4937196;29;19927;-58
2023/10/07 14:26:09;;;;;;;;;;;21.30;1.00;;;;;;4937505;29;19933;-57
2023/10/07 14:28:36;;;;;;;;;;;21.30;1.00;;;;;;4937133;29;19931;-58
2023/10/07 14:31:08;;;;;;;;;;;21.30;1.00;;;;;;4936898;29;20415;-56
2023/10/07 14:33:35;;;;;;;;;;;21.30;1.00;;;;;;4936983;29;19930;-58
2023/10/07 14:36:06;;;;;;;;;;;21.30;1.00;;;;;;4937589;29;20317;-57
2023/10/07 14:38:34;;;;;;;;;;;21.30;1.00;;;;;;4936980;29;19950;-58
2023/10/07 14:41:01;;;;;;;;;;;21.30;1.00;;;;;;4936783;29;19926;-58
2023/10/07 14:43:27;;;;;;;;;;;21.30;1.00;;;;;;5227870;23;20035;-57
2023/10/07 14:45:54;;;;;;;;;;;21.30;1.00;;;;;;4952797;29;20052;-57
2023/10/07 14:48:21;;;;;;;;;;;21.30;1.00;;;;;;4955983;29;19942;-58
2023/10/07 14:50:48;;;;;;;;;;;21.30;1.00;;;;;;4955447;29;20385;-56
2023/10/07 14:53:15;;;;;;;;;;;21.30;1.00;;;;;;4955707;29;19937;-58
2023/10/07 14:55:45;;;;;;;;;;;21.30;1.00;;;;;;4955820;29;20385;-58
2023/10/07 14:58:13;;;;;;;;;;;21.30;1.00;;;;;;4926234;29;20392;-58
2023/10/07 15:00:43;;;;;;;;;;;21.30;1.00;;;;;;4936198;29;19933;-57
2023/10/07 15:03:11;;;;;;;;;;;21.30;1.00;;;;;;4936759;29;20029;-58
2023/10/07 15:05:40;;;;;;;;;;;21.30;1.00;;;;;;4936060;29;20272;-58
2023/10/07 15:08:07;;;;;;;;;;;21.30;1.00;;;;;;4935904;29;19966;-58
2023/10/07 15:10:40;;;;;;;;;;;21.30;1.00;;;;;;4936209;29;19927;-57
2023/10/07 15:13:06;;;;;;;;;;;21.40;1.00;;;;;;4936388;29;19927;-58
2023/10/07 15:18:22;;;;;;;;;;;21.40;1.00;;;;;;5086346;23;19941;-57
2023/10/07 15:20:48;;;;;;;;;;;21.40;1.00;;;;;;4954965;28;19926;-57
2023/10/07 15:23:15;;;;;;;;;;;21.40;1.00;;;;;;4955256;29;19930;-58
2023/10/07 15:25:45;;;;;;;;;;;21.40;1.00;;;;;;4955213;29;19933;-58
2023/10/07 15:28:15;;;;;;;;;;;21.40;1.00;;;;;;4955119;29;19933;-56
2023/10/07 15:30:45;;;;;;;;;;;21.40;1.00;;;;;;4954802;28;19926;-58
2023/10/07 15:33:16;;;;;;;;;;;21.40;1.00;;;;;;4938564;29;20252;-58
2023/10/07 15:35:43;;;;;;;;;;;21.40;1.00;;;;;;4954901;29;19933;-57
2023/10/07 15:38:12;;;;;;;;;;;21.40;1.00;;;;;;4954993;29;19985;-58